createdAt,value
2023-04-26T14:26:05.715Z,16.78
2023-04-26T14:27:05.720Z,16.29
2023-04-26T14:28:05.686Z,16.29
2023-04-26T14:29:05.663Z,16.39
2023-04-26T14:30:05.729Z,16.62
2023-04-26T14:31:05.713Z,16.52
2023-04-26T14:32:05.831Z,16.29
2023-04-26T14:33:05.673Z,16.47
2023-04-26T14:34:05.662Z,16.28
2023-04-26T14:35:05.681Z,15.97
2023-04-26T14:36:05.621Z,15.64
2023-04-26T14:37:05.622Z,15.69
2023-04-26T14:38:05.613Z,15.82
2023-04-26T14:39:05.622Z,15.95
2023-04-26T14:40:05.743Z,16.05
2023-04-26T14:41:05.601Z,15.93
2023-04-26T14:42:05.625Z,15.98
2023-04-26T14:43:05.655Z,15.93
2023-04-26T14:44:05.918Z,16.02
2023-04-26T14:45:05.572Z,15.70
2023-04-26T14:46:05.629Z,15.71
2023-04-26T14:47:05.569Z,15.77
2023-04-26T14:48:05.532Z,15.80
2023-04-26T14:49:05.559Z,15.88
2023-04-26T14:50:05.634Z,15.95
2023-04-26T14:51:05.527Z,16.09
2023-04-26T14:52:05.502Z,16.13
2023-04-26T14:53:05.516Z,16.10
2023-04-26T14:54:05.515Z,15.98
2023-04-26T14:55:05.540Z,15.81
2023-04-26T14:56:05.486Z,15.99
2023-04-26T14:57:05.506Z,16.19
2023-04-26T14:58:05.444Z,16.12
2023-04-26T14:59:05.457Z,16.11
2023-04-26T15:00:05.533Z,16.03
2023-04-26T15:01:05.478Z,16.17
2023-04-26T15:02:05.528Z,16.15
2023-04-26T15:03:05.591Z,16.13
2023-04-26T15:04:05.587Z,16.19
2023-04-26T15:05:05.443Z,15.79
2023-04-26T15:07:32.090Z,15.85
2023-04-26T15:08:26.152Z,15.83
2023-04-26T15:09:25.174Z,15.90
2023-04-26T15:10:25.175Z,15.73
2023-04-26T15:11:25.148Z,15.67
2023-04-26T15:12:25.138Z,15.79
2023-04-26T15:13:25.180Z,15.74
2023-04-26T15:14:25.111Z,15.83
2023-04-26T15:15:25.133Z,15.70
2023-04-26T15:16:25.165Z,15.75
2023-04-26T15:17:25.127Z,15.85
2023-04-26T15:18:25.183Z,15.97
2023-04-26T15:19:25.071Z,16.07
2023-04-26T15:20:25.110Z,15.90
2023-04-26T15:21:25.157Z,15.72
2023-04-26T15:22:25.185Z,15.49
2023-04-26T15:23:25.221Z,15.55
2023-04-26T15:24:25.229Z,15.23
2023-04-26T15:25:25.276Z,15.27
2023-04-26T15:26:25.234Z,15.45
2023-04-26T15:27:25.321Z,15.59
2023-04-26T15:28:25.371Z,15.54
2023-04-26T15:29:25.397Z,15.52
2023-04-26T15:30:25.418Z,15.54
2023-04-26T15:31:25.442Z,15.69
2023-04-26T15:32:25.504Z,15.66
2023-04-26T15:33:25.523Z,15.67
2023-04-26T15:34:26.270Z,15.75
2023-04-26T15:35:25.610Z,15.86
2023-04-26T15:36:25.657Z,15.86
2023-04-26T15:37:25.688Z,15.81
2023-04-26T15:38:25.725Z,15.55
2023-04-26T15:39:25.761Z,15.69
2023-04-26T15:40:25.797Z,15.62
2023-04-26T15:41:25.816Z,15.54
2023-04-26T15:42:25.896Z,15.50
2023-04-26T15:43:25.877Z,15.69
2023-04-26T15:44:25.899Z,15.69
2023-04-26T15:45:25.918Z,15.73
2023-04-26T15:46:25.971Z,15.45
2023-04-26T15:47:26.027Z,15.63
2023-04-26T15:48:25.991Z,15.52
2023-04-26T15:49:26.044Z,15.65
2023-04-26T15:50:26.063Z,15.48
2023-04-26T15:51:26.087Z,15.48
2023-04-26T15:52:26.115Z,15.45
2023-04-26T15:53:26.128Z,15.31
2023-04-26T15:54:26.142Z,15.48
2023-04-26T15:55:26.158Z,15.53
2023-04-26T15:56:26.221Z,15.59
2023-04-26T15:57:26.256Z,15.41
2023-04-26T15:58:26.311Z,15.13
2023-04-26T15:59:26.348Z,15.11
2023-04-26T16:00:26.358Z,15.17
2023-04-26T16:01:26.463Z,15.02
2023-04-26T16:02:26.448Z,14.90
2023-04-26T16:03:26.652Z,14.95
2023-04-26T16:04:26.552Z,15.02
2023-04-26T16:05:26.509Z,14.99
2023-04-26T16:06:26.545Z,15.00
2023-04-26T16:07:26.615Z,14.71
2023-04-26T16:08:39.284Z,14.81
2023-04-26T16:09:27.588Z,14.73
2023-04-26T16:10:26.629Z,14.90
2023-04-26T16:11:26.553Z,14.76
2023-04-26T16:12:26.554Z,14.70
2023-04-26T16:13:26.588Z,14.65
2023-04-26T16:14:26.558Z,14.49
2023-04-26T16:15:26.550Z,14.54
2023-04-26T16:16:26.715Z,14.59
2023-04-26T16:17:26.539Z,14.55
2023-04-26T16:18:26.600Z,14.60
2023-04-26T16:19:26.530Z,14.60
2023-04-26T16:20:26.520Z,14.62
2023-04-26T16:21:26.508Z,14.63
2023-04-26T16:22:26.519Z,14.74
2023-04-26T16:23:26.492Z,14.71
2023-04-26T16:24:26.478Z,14.64
2023-04-26T16:25:26.511Z,14.55
2023-04-26T16:26:26.478Z,14.58
2023-04-26T16:27:26.485Z,14.71
2023-04-26T16:28:26.524Z,14.69
2023-04-26T16:29:26.576Z,14.66
2023-04-26T16:30:26.586Z,14.64
2023-04-26T16:31:26.690Z,14.58
2023-04-26T16:32:26.738Z,14.57
2023-04-26T16:33:26.955Z,14.52
2023-04-26T16:34:26.654Z,14.48
2023-04-26T16:35:26.662Z,14.51
2023-04-26T16:36:26.655Z,14.55
2023-04-26T16:37:26.745Z,14.67
2023-04-26T16:38:26.743Z,14.74
2023-04-26T16:39:26.759Z,14.85
2023-04-26T16:40:26.809Z,14.93
2023-04-26T16:41:26.820Z,14.74
2023-04-26T16:42:26.859Z,14.59
2023-04-26T16:43:26.984Z,14.62
2023-04-26T16:44:26.928Z,14.48
2023-04-26T16:45:26.890Z,14.42
2023-04-26T16:46:27.016Z,14.46
2023-04-26T16:47:27.018Z,14.48
2023-04-26T16:48:27.049Z,14.54
2023-04-26T16:49:27.070Z,14.48
2023-04-26T16:50:27.109Z,14.47
2023-04-26T16:51:27.130Z,14.46
2023-04-26T16:52:27.239Z,14.39
2023-04-26T16:53:27.184Z,14.41
2023-04-26T16:54:27.200Z,14.47
2023-04-26T16:55:27.201Z,14.41
2023-04-26T16:56:27.246Z,14.41
2023-04-26T16:57:27.309Z,14.41
2023-04-26T16:58:27.374Z,14.44
2023-04-26T16:59:27.360Z,14.46
2023-04-26T17:00:27.400Z,14.34
2023-04-26T17:01:27.545Z,14.37
2023-04-26T17:02:27.572Z,14.20
2023-04-26T17:03:27.743Z,14.14
2023-04-26T17:04:27.794Z,14.12
2023-04-26T17:05:27.496Z,14.16
2023-04-26T17:06:27.512Z,14.05
2023-04-26T17:07:27.557Z,14.01
2023-04-26T17:08:27.536Z,13.93
2023-04-26T17:09:27.601Z,13.94
2023-04-26T17:10:27.601Z,13.95
2023-04-26T17:11:27.614Z,14.08
2023-04-26T17:12:27.653Z,13.98
2023-04-26T17:13:27.665Z,13.99
2023-04-26T17:14:27.682Z,13.91
2023-04-26T17:15:27.697Z,13.89
2023-04-26T17:16:27.782Z,13.84
2023-04-26T17:17:27.825Z,13.86
2023-04-26T17:18:27.732Z,13.81
2023-04-26T17:19:27.766Z,13.82
2023-04-26T17:20:27.790Z,13.59
2023-04-26T17:21:27.825Z,13.65
2023-04-26T17:22:27.841Z,13.73
2023-04-26T17:23:27.849Z,13.75
2023-04-26T17:24:27.898Z,13.82
2023-04-26T17:25:27.946Z,13.80
2023-04-26T17:26:27.945Z,13.79
2023-04-26T17:27:27.960Z,13.76
2023-04-26T17:28:27.962Z,13.75
2023-04-26T17:29:28.040Z,13.67
2023-04-26T17:30:28.034Z,13.58
2023-04-26T17:31:28.053Z,13.61
2023-04-26T17:32:28.157Z,13.55
2023-04-26T17:33:28.101Z,13.57
2023-04-26T17:34:28.136Z,13.48
2023-04-26T17:35:28.154Z,13.46
2023-04-26T17:36:28.152Z,13.47
2023-04-26T17:37:28.209Z,13.45
2023-04-26T17:38:28.193Z,13.39
2023-04-26T17:39:28.174Z,13.39
2023-04-26T17:40:28.205Z,13.35
2023-04-26T17:41:28.204Z,13.39
2023-04-26T17:42:28.216Z,13.29
2023-04-26T17:43:28.298Z,13.21
2023-04-26T17:44:28.307Z,13.12
2023-04-26T17:45:28.438Z,13.10
2023-04-26T17:46:28.458Z,13.11
2023-04-26T17:47:28.467Z,13.10
2023-04-26T17:48:28.399Z,13.04
2023-04-26T17:49:28.442Z,13.01
2023-04-26T17:50:28.516Z,12.99
2023-04-26T17:51:28.579Z,13.04
2023-04-26T17:52:28.607Z,12.96
2023-04-26T17:53:28.591Z,12.94
2023-04-26T17:54:28.624Z,12.92
2023-04-26T17:55:28.643Z,12.83
2023-04-26T17:56:28.700Z,12.82
2023-04-26T17:57:28.701Z,12.83
2023-04-26T17:58:28.721Z,12.86
2023-04-26T17:59:28.775Z,12.80
2023-04-26T18:00:28.799Z,12.73
2023-04-26T18:01:28.859Z,12.70
2023-04-26T18:02:29.008Z,12.69
2023-04-26T18:03:29.006Z,12.78
2023-04-26T18:04:29.172Z,12.63
2023-04-26T18:05:28.964Z,12.63
2023-04-26T18:06:28.989Z,12.61
2023-04-26T18:07:29.022Z,12.64
2023-04-26T18:08:29.068Z,12.63
2023-04-26T18:09:29.031Z,12.52
2023-04-26T18:10:29.114Z,12.55
2023-04-26T18:11:29.127Z,12.57
2023-04-26T18:12:29.161Z,12.59
2023-04-26T18:13:29.165Z,12.52
2023-04-26T18:14:29.207Z,12.53
2023-04-26T18:15:29.233Z,12.53
2023-04-26T18:16:29.365Z,12.48
2023-04-26T18:17:29.330Z,12.48
2023-04-26T18:18:29.344Z,12.47
2023-04-26T18:19:29.365Z,12.39
2023-04-26T18:20:29.403Z,12.34
2023-04-26T18:21:29.443Z,12.27
2023-04-26T18:22:29.493Z,12.30
2023-04-26T18:23:29.545Z,12.26
2023-04-26T18:24:29.549Z,12.26
2023-04-26T18:25:29.544Z,12.31
2023-04-26T18:26:29.566Z,12.21
2023-04-26T18:27:29.661Z,12.17
2023-04-26T18:28:29.620Z,12.16
2023-04-26T18:29:29.634Z,12.08
2023-04-26T18:30:29.693Z,12.06
2023-04-26T18:31:31.793Z,12.03
2023-04-26T18:32:29.775Z,12.04
2023-04-26T18:33:29.731Z,12.00
2023-04-26T18:34:29.699Z,11.97
2023-04-26T18:35:29.682Z,11.99
2023-04-26T18:36:29.673Z,12.00
2023-04-26T18:37:29.771Z,11.94
2023-04-26T18:38:29.688Z,11.91
2023-04-26T18:39:29.645Z,11.95
2023-04-26T18:40:29.656Z,11.99
2023-04-26T18:41:29.701Z,11.94
2023-04-26T18:42:29.673Z,11.87
2023-04-26T18:43:29.656Z,11.90
2023-04-26T18:44:29.638Z,11.89
2023-04-26T18:45:29.679Z,11.93
2023-04-26T18:46:29.716Z,11.93
2023-04-26T18:47:29.685Z,11.95
2023-04-26T18:48:29.622Z,12.01
2023-04-26T18:49:29.634Z,12.06
2023-04-26T18:50:29.605Z,12.06
2023-04-26T18:51:29.608Z,12.00
2023-04-26T18:52:29.595Z,11.97
2023-04-26T18:53:29.585Z,11.92
2023-04-26T18:54:29.557Z,11.92
2023-04-26T18:55:29.566Z,11.95
2023-04-26T18:56:29.567Z,11.98
2023-04-26T18:57:29.573Z,12.00
2023-04-26T18:58:29.529Z,12.02
2023-04-26T18:59:29.510Z,12.06
2023-04-26T19:00:29.519Z,12.10
2023-04-26T19:01:29.492Z,12.10
2023-04-26T19:02:29.584Z,11.85
2023-04-26T19:03:29.592Z,11.82
2023-04-26T19:04:29.677Z,11.89
2023-04-26T19:05:29.486Z,11.95
2023-04-26T19:06:29.475Z,11.99
2023-04-26T19:07:29.506Z,12.01
2023-04-26T19:08:29.470Z,11.97
2023-04-26T19:09:29.971Z,11.95
2023-04-26T19:10:29.434Z,11.74
2023-04-26T19:11:29.461Z,11.64
2023-04-26T19:12:29.432Z,11.59
2023-04-26T19:13:29.399Z,11.66
2023-04-26T19:14:29.421Z,11.51
2023-04-26T19:15:29.445Z,11.53
2023-04-26T19:16:29.580Z,11.59
2023-04-26T19:17:29.426Z,11.60
2023-04-26T19:18:29.396Z,11.61
2023-04-26T19:19:29.370Z,11.64
2023-04-26T19:20:29.359Z,11.62
2023-04-26T19:21:29.380Z,11.59
2023-04-26T19:22:29.394Z,11.56
2023-04-26T19:23:29.336Z,11.43
2023-04-26T19:24:29.334Z,11.47
2023-04-26T19:25:29.352Z,11.53
2023-04-26T19:26:29.324Z,11.56
2023-04-26T19:27:29.323Z,11.56
2023-04-26T19:28:29.329Z,11.52
2023-04-26T19:29:29.340Z,11.48
2023-04-26T19:30:29.324Z,11.49
2023-04-26T19:31:29.319Z,11.47
2023-04-26T19:32:29.337Z,11.48
2023-04-26T19:33:29.275Z,11.46
2023-04-26T19:34:29.278Z,11.50
2023-04-26T19:35:29.271Z,11.56
2023-04-26T19:36:29.264Z,11.59
2023-04-26T19:37:29.294Z,11.37
2023-04-26T19:38:29.220Z,11.41
2023-04-26T19:39:29.246Z,11.48
2023-04-26T19:40:29.265Z,11.53
2023-04-26T19:41:29.222Z,11.50
2023-04-26T19:42:29.271Z,11.56
2023-04-26T19:43:29.267Z,11.59
2023-04-26T19:44:29.331Z,11.60
2023-04-26T19:45:29.360Z,11.63
2023-04-26T19:46:29.402Z,11.65
2023-04-26T19:47:29.473Z,11.65
2023-04-26T19:48:29.396Z,11.59
2023-04-26T19:49:29.433Z,11.58
2023-04-26T19:50:29.480Z,11.57
2023-04-26T19:51:29.480Z,11.58
2023-04-26T19:52:29.501Z,11.54
2023-04-26T19:53:29.446Z,11.50
2023-04-26T19:54:29.503Z,11.55
2023-04-26T19:55:29.511Z,11.52
2023-04-26T19:56:29.527Z,11.50
2023-04-26T19:57:29.569Z,11.46
2023-04-26T19:58:29.565Z,11.50
2023-04-26T19:59:29.587Z,11.50
2023-04-26T20:00:29.653Z,11.45
2023-04-26T20:01:29.763Z,11.46
2023-04-26T20:02:29.797Z,11.40
2023-04-26T20:03:29.922Z,11.41
2023-04-26T20:04:29.762Z,11.45
2023-04-26T20:05:29.716Z,11.50
2023-04-26T20:06:29.701Z,11.53
2023-04-26T20:07:29.727Z,11.56
2023-04-26T20:08:31.407Z,11.56
2023-04-26T20:09:29.758Z,11.52
2023-04-26T20:10:29.754Z,11.55
2023-04-26T20:11:29.805Z,11.58
2023-04-26T20:12:29.818Z,11.59
2023-04-26T20:13:29.857Z,11.59
2023-04-26T20:14:29.905Z,11.52
2023-04-26T20:15:31.562Z,11.45
2023-04-26T20:16:29.876Z,11.39
2023-04-26T20:17:29.895Z,11.39
2023-04-26T20:18:29.809Z,11.40
2023-04-26T20:19:29.794Z,11.41
2023-04-26T20:20:29.868Z,11.43
2023-04-26T20:21:29.827Z,11.46
2023-04-26T20:22:29.823Z,11.48
2023-04-26T20:23:29.811Z,11.44
2023-04-26T20:24:29.817Z,11.40
2023-04-26T20:25:29.821Z,11.36
2023-04-26T20:26:29.812Z,11.37
2023-04-26T20:27:29.799Z,11.39
2023-04-26T20:28:29.750Z,11.43
2023-04-26T20:29:29.763Z,11.45
2023-04-26T20:30:29.746Z,11.44
2023-04-26T20:31:29.868Z,11.43
2023-04-26T20:32:29.766Z,11.40
2023-04-26T20:33:29.746Z,11.39
2023-04-26T20:34:29.717Z,11.39
2023-04-26T20:35:29.689Z,11.43
2023-04-26T20:36:29.712Z,11.36
2023-04-26T20:37:29.722Z,11.37
2023-04-26T20:38:29.692Z,11.36
2023-04-26T20:39:29.696Z,11.38
2023-04-26T20:40:29.686Z,11.39
2023-04-26T20:41:29.696Z,11.39
2023-04-26T20:42:29.701Z,11.40
2023-04-26T20:43:29.665Z,11.37
2023-04-26T20:44:29.665Z,11.30
2023-04-26T20:45:29.644Z,11.27
2023-04-26T20:46:29.789Z,11.31
2023-04-26T20:47:29.697Z,11.30
2023-04-26T20:48:29.645Z,11.27
2023-04-26T20:49:29.611Z,11.28
2023-04-26T20:50:29.609Z,11.26
2023-04-26T20:51:29.609Z,11.25
2023-04-26T20:52:29.600Z,11.27
2023-04-26T20:53:29.569Z,11.29
2023-04-26T20:54:29.572Z,11.27
2023-04-26T20:55:29.552Z,11.24
2023-04-26T20:56:29.563Z,11.18
2023-04-26T20:57:29.540Z,10.98
2023-04-26T20:58:29.544Z,10.93
2023-04-26T20:59:29.557Z,10.98
2023-04-26T21:00:29.516Z,10.98
2023-04-26T21:01:29.551Z,11.01
2023-04-26T21:02:29.646Z,11.08
2023-04-26T21:03:29.725Z,11.15
2023-04-26T21:04:29.678Z,11.13
2023-04-26T21:05:29.493Z,11.15
2023-04-26T21:06:29.515Z,11.11
2023-04-26T21:07:29.480Z,11.15
2023-04-26T21:08:29.457Z,11.05
2023-04-26T21:09:29.430Z,11.08
2023-04-26T21:10:29.493Z,11.15
2023-04-26T21:11:29.435Z,11.02
2023-04-26T21:12:29.484Z,11.08
2023-04-26T21:13:29.485Z,11.09
2023-04-26T21:14:29.525Z,11.05
2023-04-26T21:15:29.615Z,11.05
2023-04-26T21:16:29.701Z,11.11
2023-04-26T21:17:29.632Z,11.10
2023-04-26T21:18:29.606Z,11.14
2023-04-26T21:19:29.643Z,11.17
2023-04-26T21:20:29.700Z,11.24
2023-04-26T21:21:29.722Z,11.21
2023-04-26T21:22:29.696Z,11.22
2023-04-26T21:23:29.732Z,11.27
2023-04-26T21:24:29.783Z,11.30
2023-04-26T21:25:29.749Z,11.32
2023-04-26T21:26:29.755Z,11.28
2023-04-26T21:27:29.768Z,11.21
2023-04-26T21:28:29.766Z,11.24
2023-04-26T21:29:29.812Z,11.01
2023-04-26T21:30:29.823Z,11.03
2023-04-26T21:31:29.857Z,11.09
2023-04-26T21:32:29.828Z,11.14
2023-04-26T21:33:29.882Z,11.20
2023-04-26T21:34:29.910Z,11.13
2023-04-26T21:35:29.947Z,11.14
2023-04-26T21:36:29.956Z,11.06
2023-04-26T21:37:29.951Z,11.09
2023-04-26T21:38:29.974Z,11.14
2023-04-26T21:39:29.997Z,11.14
2023-04-26T21:40:30.058Z,11.19
2023-04-26T21:41:30.047Z,11.12
2023-04-26T21:42:30.051Z,10.96
2023-04-26T21:43:30.052Z,10.97
2023-04-26T21:44:30.082Z,11.06
2023-04-26T21:45:30.118Z,11.12
2023-04-26T21:46:30.154Z,11.02
2023-04-26T21:47:30.190Z,10.97
2023-04-26T21:48:30.141Z,10.98
2023-04-26T21:49:30.161Z,11.04
2023-04-26T21:50:30.172Z,10.91
2023-04-26T21:51:30.228Z,10.84
2023-04-26T21:52:30.235Z,10.80
2023-04-26T21:53:30.319Z,10.82
2023-04-26T21:54:30.273Z,10.87
2023-04-26T21:55:30.290Z,10.97
2023-04-26T21:56:30.309Z,11.00
2023-04-26T21:57:30.318Z,11.10
2023-04-26T21:58:30.333Z,11.11
2023-04-26T21:59:30.371Z,11.11
2023-04-26T22:00:30.520Z,11.17
2023-04-26T22:01:30.486Z,11.20
2023-04-26T22:02:30.610Z,11.17
2023-04-26T22:03:30.731Z,11.10
2023-04-26T22:04:30.615Z,11.09
2023-04-26T22:05:30.594Z,10.98
2023-04-26T22:06:30.597Z,10.68
2023-04-26T22:07:30.657Z,10.61
2023-04-26T22:08:30.666Z,10.71
2023-04-26T22:09:30.659Z,10.81
2023-04-26T22:10:30.673Z,10.88
2023-04-26T22:11:30.718Z,10.95
2023-04-26T22:12:30.695Z,10.87
2023-04-26T22:13:30.701Z,10.93
2023-04-26T22:14:30.738Z,10.96
2023-04-26T22:15:30.862Z,10.87
2023-04-26T22:16:30.760Z,10.87
2023-04-26T22:17:30.822Z,10.80
2023-04-26T22:18:30.810Z,10.67
2023-04-26T22:19:30.790Z,10.66
2023-04-26T22:20:30.832Z,10.75
2023-04-26T22:21:30.850Z,10.83
2023-04-26T22:22:30.896Z,10.87
2023-04-26T22:23:30.892Z,10.88
2023-04-26T22:24:30.917Z,10.96
2023-04-26T22:25:30.975Z,10.86
2023-04-26T22:26:30.991Z,10.89
2023-04-26T22:27:30.991Z,10.74
2023-04-26T22:28:31.008Z,10.74
2023-04-26T22:29:31.001Z,10.81
2023-04-26T22:30:31.020Z,10.82
2023-04-26T22:31:31.215Z,10.69
2023-04-26T22:32:31.121Z,10.63
2023-04-26T22:33:31.092Z,10.75
2023-04-26T22:34:31.141Z,10.70
2023-04-26T22:35:31.159Z,10.54
2023-04-26T22:36:31.195Z,10.53
2023-04-26T22:37:31.250Z,10.51
2023-04-26T22:38:31.219Z,10.50
2023-04-26T22:39:31.273Z,10.53
2023-04-26T22:40:31.327Z,10.63
2023-04-26T22:41:31.396Z,10.70
2023-04-26T22:42:31.424Z,10.76
2023-04-26T22:43:31.451Z,10.79
2023-04-26T22:44:31.448Z,10.78
2023-04-26T22:45:31.522Z,10.70
2023-04-26T22:46:32.449Z,10.70
2023-04-26T22:47:31.712Z,10.72
2023-04-26T22:48:31.655Z,10.79
2023-04-26T22:49:31.708Z,10.79
2023-04-26T22:50:31.719Z,10.85
2023-04-26T22:51:31.749Z,10.87
2023-04-26T22:52:32.276Z,10.92
2023-04-26T22:53:31.777Z,10.88
2023-04-26T22:54:31.800Z,10.86
2023-04-26T22:55:31.874Z,10.90
2023-04-26T22:56:31.846Z,10.73
2023-04-26T22:57:31.864Z,10.59
2023-04-26T22:58:31.917Z,10.41
2023-04-26T22:59:31.959Z,10.40
2023-04-26T23:00:32.028Z,10.36
2023-04-26T23:01:31.997Z,10.49
2023-04-26T23:02:32.118Z,10.46
2023-04-26T23:03:32.072Z,10.41
2023-04-26T23:04:32.092Z,10.27
2023-04-26T23:05:32.100Z,10.25
2023-04-26T23:06:32.120Z,10.29
2023-04-26T23:07:32.181Z,10.36
2023-04-26T23:08:32.222Z,10.42
2023-04-26T23:09:32.300Z,10.44
2023-04-26T23:10:32.244Z,10.46
2023-04-26T23:11:32.310Z,10.48
2023-04-26T23:12:32.358Z,10.44
2023-04-26T23:13:32.433Z,10.53
2023-04-26T23:14:32.425Z,10.53
2023-04-26T23:15:32.448Z,10.41
2023-04-26T23:16:32.531Z,10.43
2023-04-26T23:17:32.514Z,10.44
2023-04-26T23:18:32.564Z,10.35
2023-04-26T23:19:32.617Z,10.44
2023-04-26T23:20:32.605Z,10.48
2023-04-26T23:21:32.613Z,10.53
2023-04-26T23:22:32.697Z,10.59
2023-04-26T23:23:32.697Z,10.55
2023-04-26T23:24:32.707Z,10.59
2023-04-26T23:25:32.701Z,10.44
2023-04-26T23:26:32.761Z,10.42
2023-04-26T23:27:32.835Z,10.34
2023-04-26T23:28:32.829Z,10.38
2023-04-26T23:29:32.862Z,10.32
2023-04-26T23:30:32.891Z,10.46
2023-04-26T23:31:32.976Z,10.47
2023-04-26T23:32:32.987Z,10.52
2023-04-26T23:33:33.000Z,10.59
2023-04-26T23:34:33.012Z,10.59
2023-04-26T23:35:33.101Z,10.37
2023-04-26T23:36:33.142Z,10.17
2023-04-26T23:37:33.204Z,10.15
2023-04-26T23:38:33.212Z,10.16
2023-04-26T23:39:33.208Z,10.12
2023-04-26T23:40:33.279Z,10.09
2023-04-26T23:41:33.293Z,10.24
2023-04-26T23:42:33.360Z,10.38
2023-04-26T23:43:33.332Z,10.33
2023-04-26T23:44:33.384Z,10.35
2023-04-26T23:45:33.410Z,10.34
2023-04-26T23:46:33.478Z,10.38
2023-04-26T23:47:33.483Z,10.36
2023-04-26T23:48:33.446Z,10.26
2023-04-26T23:49:33.485Z,10.28
2023-04-26T23:50:33.547Z,10.26
2023-04-26T23:51:33.604Z,10.36
2023-04-26T23:52:33.648Z,10.43
2023-04-26T23:53:33.607Z,10.53
2023-04-26T23:54:33.605Z,10.55
2023-04-26T23:55:33.633Z,10.61
2023-04-26T23:56:33.634Z,10.60
2023-04-26T23:57:33.674Z,10.55
2023-04-26T23:58:33.689Z,10.45
2023-04-26T23:59:33.724Z,10.25
